createdAt,value
2017-11-24T00:01:44.865Z,2.40
2017-11-24T00:06:46.623Z,1.77
2017-11-24T00:11:48.434Z,1.33
2017-11-24T00:16:50.138Z,1.33
2017-11-24T00:21:51.833Z,1.50
2017-11-24T00:26:53.514Z,1.33
2017-11-24T00:31:55.284Z,2.20
2017-11-24T00:36:57.732Z,2.17
2017-11-24T00:41:59.444Z,1.73
2017-11-24T00:47:01.164Z,2.20
2017-11-24T00:52:02.944Z,2.10
2017-11-24T00:57:04.634Z,3.37
2017-11-24T01:02:06.336Z,1.90
2017-11-24T01:07:08.122Z,1.63
2017-11-24T01:12:09.822Z,2.00
2017-11-24T01:17:11.541Z,2.17
2017-11-24T01:22:13.272Z,2.60
2017-11-24T01:27:15.256Z,1.60
2017-11-24T01:32:17.038Z,1.80
2017-11-24T01:37:18.801Z,2.33
2017-11-24T01:42:21.320Z,3.00
2017-11-24T01:47:23.020Z,2.40
2017-11-24T01:52:25.538Z,2.43
2017-11-24T01:57:27.285Z,2.83
2017-11-24T02:02:29.031Z,2.43
2017-11-24T02:07:31.511Z,3.00
2017-11-24T02:12:33.216Z,2.23
2017-11-24T02:17:35.114Z,2.70
2017-11-24T02:22:36.843Z,2.70
2017-11-24T02:27:39.332Z,2.87
2017-11-24T02:32:41.186Z,3.03
2017-11-24T02:37:42.941Z,2.63
2017-11-24T02:42:44.748Z,2.47
2017-11-24T02:47:46.517Z,2.00
2017-11-24T02:52:48.287Z,2.23
2017-11-24T02:57:50.071Z,2.60
2017-11-24T03:02:51.830Z,2.50
2017-11-24T03:07:53.697Z,2.47
2017-11-24T03:12:55.497Z,2.10
2017-11-24T03:17:57.291Z,3.63
2017-11-24T03:22:59.016Z,2.57
2017-11-24T03:28:00.776Z,2.93
2017-11-24T03:33:02.531Z,2.03
2017-11-24T03:38:04.259Z,3.03
2017-11-24T03:43:06.735Z,2.73
2017-11-24T03:48:08.450Z,2.47
2017-11-24T03:53:10.905Z,2.30
2017-11-24T03:58:13.299Z,2.33
2017-11-24T04:03:19.942Z,2.10
2017-11-24T04:08:21.855Z,2.23
2017-11-24T04:13:27.171Z,2.20
2017-11-24T04:18:33.589Z,1.87
2017-11-24T04:23:37.143Z,2.90
2017-11-24T04:28:39.607Z,2.27
2017-11-24T04:33:42.019Z,2.77
2017-11-24T04:38:44.594Z,2.00
2017-11-24T04:43:47.113Z,2.30
2017-11-24T04:48:49.519Z,2.90
2017-11-24T04:53:52.442Z,2.47
2017-11-24T04:58:54.929Z,2.30
2017-11-24T05:03:57.284Z,3.80
2017-11-24T05:08:59.917Z,2.83
2017-11-24T05:14:03.181Z,3.20
2017-11-24T05:19:05.539Z,2.83
2017-11-24T05:24:08.043Z,2.60
2017-11-24T05:29:10.959Z,3.40
2017-11-24T05:34:14.192Z,2.87
2017-11-24T05:39:16.686Z,3.10
2017-11-24T05:44:19.093Z,3.13
2017-11-24T05:49:22.297Z,2.87
2017-11-24T05:54:24.700Z,2.80
2017-11-24T05:59:27.098Z,3.70
2017-11-24T06:04:29.446Z,3.50
2017-11-24T06:09:32.054Z,5.10
2017-11-24T06:14:34.543Z,5.00
2017-11-24T06:19:37.202Z,4.67
2017-11-24T06:24:39.607Z,4.00
2017-11-24T06:29:42.109Z,4.07
2017-11-24T06:34:44.458Z,4.07
2017-11-24T06:39:46.685Z,4.13
2017-11-24T06:44:49.036Z,5.23
2017-11-24T06:49:51.477Z,4.00
2017-11-24T06:54:53.860Z,5.23
2017-11-24T06:59:56.349Z,5.03
2017-11-24T07:04:58.888Z,5.83
2017-11-24T07:10:01.631Z,5.20
2017-11-24T07:15:04.211Z,6.07
2017-11-24T07:20:06.714Z,6.30
2017-11-24T07:25:09.902Z,5.33
2017-11-24T07:30:12.477Z,7.43
2017-11-24T07:35:14.857Z,5.67
2017-11-24T07:40:17.361Z,6.53
2017-11-24T07:45:19.848Z,4.40
2017-11-24T07:50:22.288Z,5.57
2017-11-24T07:55:24.780Z,5.30
2017-11-24T08:00:27.472Z,4.77
2017-11-24T08:05:29.959Z,5.23
2017-11-24T08:10:32.373Z,4.70
2017-11-24T08:15:34.853Z,4.03
2017-11-24T08:20:37.370Z,3.23
2017-11-24T08:25:39.946Z,2.80
2017-11-24T08:30:43.072Z,2.80
2017-11-24T08:35:46.349Z,3.27
2017-11-24T08:40:48.772Z,3.47
2017-11-24T08:45:51.264Z,2.90
2017-11-24T08:50:53.692Z,2.77
2017-11-24T08:55:56.156Z,2.73
2017-11-24T09:00:58.722Z,3.17
2017-11-24T09:06:01.176Z,3.60
2017-11-24T09:11:03.640Z,3.33
2017-11-24T09:16:06.038Z,2.77
2017-11-24T09:21:09.239Z,3.73
2017-11-24T09:26:11.636Z,4.10
2017-11-24T09:31:14.161Z,2.80
2017-11-24T09:36:16.680Z,2.37
2017-11-24T09:41:19.212Z,3.77
2017-11-24T09:46:21.737Z,2.90
2017-11-24T09:51:24.189Z,3.10
2017-11-24T10:01:36.084Z,2.90
2017-11-24T10:06:38.640Z,2.70
2017-11-24T10:11:41.108Z,2.60
2017-11-24T10:16:44.301Z,2.77
2017-11-24T10:21:52.592Z,1.53
2017-11-24T10:26:55.799Z,1.87
2017-11-24T10:31:58.298Z,1.73
2017-11-24T10:37:00.877Z,2.10
2017-11-24T10:42:03.297Z,2.07
2017-11-24T10:47:05.754Z,1.47
2017-11-24T10:52:08.219Z,1.67
2017-11-24T10:57:10.546Z,1.73
2017-11-24T11:02:13.014Z,1.70
2017-11-24T11:07:15.476Z,2.03
2017-11-24T11:12:17.953Z,1.87
2017-11-24T11:17:20.404Z,2.30
2017-11-24T11:22:23.226Z,2.20
2017-11-24T11:27:25.718Z,3.57
2017-11-24T11:32:28.883Z,4.00
2017-11-24T11:37:31.470Z,4.00
2017-11-24T11:42:34.697Z,3.50
2017-11-24T11:47:37.484Z,3.03
2017-11-24T11:52:39.944Z,3.13
2017-11-24T11:57:42.408Z,3.63
2017-11-24T12:02:44.978Z,3.50
2017-11-24T12:07:48.349Z,4.30
2017-11-24T12:12:50.961Z,3.07
2017-11-24T12:17:53.347Z,2.80
2017-11-24T12:22:55.773Z,3.90
2017-11-24T12:27:58.221Z,2.30
2017-11-24T12:33:00.695Z,2.83
2017-11-24T12:38:03.953Z,3.00
2017-11-24T12:43:06.379Z,3.50
2017-11-24T12:48:08.789Z,3.00
2017-11-24T12:53:11.350Z,3.07
2017-11-24T12:58:13.782Z,3.60
2017-11-24T13:03:16.267Z,3.13
2017-11-24T13:08:18.722Z,3.27
2017-11-24T13:13:21.349Z,4.20
2017-11-24T13:18:24.547Z,3.20
2017-11-24T13:23:26.907Z,3.40
2017-11-24T13:28:33.289Z,4.00
2017-11-24T13:33:35.756Z,4.43
2017-11-24T13:38:38.259Z,4.97
2017-11-24T13:43:40.676Z,4.87
2017-11-24T13:48:42.968Z,5.43
2017-11-24T13:53:46.207Z,5.40
2017-11-24T13:58:49.332Z,5.03
2017-11-24T14:03:52.575Z,6.63
2017-11-24T14:08:55.320Z,5.53
2017-11-24T14:13:57.856Z,5.20
2017-11-24T14:19:00.256Z,4.50
2017-11-24T14:24:02.696Z,5.33
2017-11-24T14:29:05.125Z,5.50
2017-11-24T14:34:07.682Z,5.30
2017-11-24T14:39:10.134Z,4.97
2017-11-24T14:44:13.476Z,6.30
2017-11-24T14:49:15.848Z,5.70
2017-11-24T14:54:18.285Z,5.70
2017-11-24T14:59:20.743Z,6.50
2017-11-24T15:04:23.303Z,6.63
2017-11-24T15:09:25.780Z,3.43
2017-11-24T15:14:28.311Z,29.80
2017-11-24T15:19:31.495Z,2.40
2017-11-24T15:24:33.875Z,2.10
2017-11-24T15:29:37.247Z,2.70
2017-11-24T15:34:39.616Z,2.73
2017-11-24T15:39:42.836Z,2.17
2017-11-24T15:44:45.979Z,2.60
2017-11-24T15:49:48.540Z,3.50
2017-11-24T15:54:50.894Z,3.00
2017-11-24T15:59:53.451Z,5.00
2017-11-24T16:04:55.926Z,3.00
2017-11-24T16:09:58.420Z,3.30
2017-11-24T16:15:00.934Z,4.77
2017-11-24T16:20:03.529Z,3.17
2017-11-24T16:25:06.631Z,3.00
2017-11-24T16:30:09.983Z,3.30
2017-11-24T16:35:12.321Z,12.53
2017-11-24T16:40:14.781Z,4.67
2017-11-24T16:45:17.317Z,5.90
2017-11-24T16:50:20.725Z,19.03
2017-11-24T16:55:30.329Z,9.20
2017-11-24T17:00:33.695Z,35.73
2017-11-24T17:05:37.980Z,9.00
2017-11-24T17:10:40.740Z,13.50
2017-11-24T17:15:43.986Z,12.90
2017-11-24T17:20:47.126Z,18.40
2017-11-24T17:25:49.796Z,23.50
2017-11-24T17:30:52.232Z,23.60
2017-11-24T17:35:54.656Z,15.30
2017-11-24T17:40:57.866Z,20.73
2017-11-24T17:46:00.385Z,18.03
2017-11-24T17:51:02.799Z,18.60
2017-11-24T17:56:04.587Z,18.20
2017-11-24T18:01:06.403Z,18.57
2017-11-24T18:06:08.174Z,19.80
2017-11-24T18:11:09.903Z,20.60
2017-11-24T18:16:11.700Z,20.47
2017-11-24T18:21:13.476Z,23.73
2017-11-24T18:26:15.236Z,20.47
2017-11-24T18:31:18.349Z,20.33
2017-11-24T18:36:20.103Z,19.80
2017-11-24T18:41:24.305Z,20.07
2017-11-24T18:46:27.473Z,20.33
2017-11-24T18:51:29.243Z,20.13
2017-11-24T18:56:31.044Z,18.70
2017-11-24T19:01:32.857Z,16.80
2017-11-24T19:06:35.449Z,18.57
2017-11-24T19:11:37.272Z,20.77
2017-11-24T19:16:42.167Z,15.80
2017-11-24T19:21:44.001Z,18.43
2017-11-24T19:26:47.349Z,20.53
2017-11-24T19:31:52.604Z,17.90
2017-11-24T19:36:59.615Z,21.10
2017-11-24T19:42:08.886Z,20.60
2017-11-24T19:47:16.220Z,20.97
2017-11-24T19:52:23.519Z,21.40
2017-11-24T19:57:26.652Z,22.57
2017-11-24T20:02:29.862Z,20.67
2017-11-24T20:07:36.901Z,20.07
2017-11-24T20:12:39.117Z,18.13
2017-11-24T20:17:43.000Z,18.77
2017-11-24T20:22:45.803Z,20.60
2017-11-24T20:27:49.834Z,18.67
2017-11-24T20:32:52.334Z,18.87
2017-11-24T20:37:54.170Z,19.00
2017-11-24T20:42:56.616Z,18.73
2017-11-24T20:47:58.296Z,22.43
2017-11-24T20:52:59.987Z,18.87
2017-11-24T20:58:02.600Z,17.70
2017-11-24T21:03:05.111Z,20.30
2017-11-24T21:08:07.326Z,27.30
2017-11-24T21:13:10.553Z,30.60
2017-11-24T21:18:13.877Z,29.17
2017-11-24T21:23:16.442Z,27.30
2017-11-24T21:28:18.937Z,28.53
2017-11-24T21:33:21.883Z,23.97
2017-11-24T21:38:24.471Z,25.80
2017-11-24T21:43:27.109Z,23.70
2017-11-24T21:48:28.957Z,21.60
2017-11-24T21:53:30.804Z,25.40
2017-11-24T21:58:33.368Z,23.27
2017-11-24T22:03:35.334Z,22.80
2017-11-24T22:08:37.777Z,25.07
2017-11-24T22:13:45.016Z,25.17
2017-11-24T22:18:47.275Z,23.60
2017-11-24T22:23:51.434Z,23.97
2017-11-24T22:28:53.231Z,25.70
2017-11-24T22:34:00.401Z,23.87
2017-11-24T22:39:08.671Z,25.47
2017-11-24T22:44:14.004Z,22.00
2017-11-24T22:49:16.906Z,23.80
2017-11-24T22:54:19.619Z,24.87
2017-11-24T22:59:24.510Z,25.70
2017-11-24T23:04:28.218Z,23.73
2017-11-24T23:09:34.316Z,24.10
2017-11-24T23:14:39.871Z,23.27
2017-11-24T23:19:46.896Z,22.63
2017-11-24T23:24:49.602Z,24.47
2017-11-24T23:29:52.637Z,25.33
2017-11-24T23:34:59.243Z,26.17
2017-11-24T23:40:01.699Z,23.37
2017-11-24T23:45:03.514Z,23.27
2017-11-24T23:50:12.164Z,23.73
2017-11-24T23:55:13.952Z,24.07
